地図

経路データ

SID SEASON NUMBER BASIN SUBBASIN NAME ISO_TIME NATURE LAT LON WMO_WIND WMO_PRES WMO_AGENCY TRACK_TYPE DIST2LAND LANDFALL IFLAG USA_AGENCY USA_ATCF_ID USA_LAT USA_LON USA_RECORD USA_STATUS USA_WIND USA_PRES USA_SSHS USA_R34_NE USA_R34_SE USA_R34_SW USA_R34_NW USA_R50_NE USA_R50_SE USA_R50_SW USA_R50_NW USA_R64_NE USA_R64_SE USA_R64_SW USA_R64_NW USA_POCI USA_ROCI USA_RMW USA_EYE TOKYO_LAT TOKYO_LON TOKYO_GRADE TOKYO_WIND TOKYO_PRES TOKYO_R50_DIR TOKYO_R50_LONG TOKYO_R50_SHORT TOKYO_R30_DIR TOKYO_R30_LONG TOKYO_R30_SHORT TOKYO_LAND CMA_LAT CMA_LON CMA_CAT CMA_WIND CMA_PRES HKO_LAT HKO_LON HKO_CAT HKO_WIND HKO_PRES NEWDELHI_LAT NEWDELHI_LON NEWDELHI_GRADE NEWDELHI_WIND NEWDELHI_PRES NEWDELHI_CI NEWDELHI_DP NEWDELHI_POCI REUNION_LAT REUNION_LON REUNION_TYPE REUNION_WIND REUNION_PRES REUNION_TNUM REUNION_CI REUNION_RMW REUNION_R34_NE REUNION_R34_SE REUNION_R34_SW REUNION_R34_NW REUNION_R50_NE REUNION_R50_SE REUNION_R50_SW REUNION_R50_NW REUNION_R64_NE REUNION_R64_SE REUNION_R64_SW REUNION_R64_NW BOM_LAT BOM_LON BOM_TYPE BOM_WIND BOM_PRES BOM_TNUM BOM_CI BOM_RMW BOM_R34_NE BOM_R34_SE BOM_R34_SW BOM_R34_NW BOM_R50_NE BOM_R50_SE BOM_R50_SW BOM_R50_NW BOM_R64_NE BOM_R64_SE BOM_R64_SW BOM_R64_NW BOM_ROCI BOM_POCI BOM_EYE BOM_POS_METHOD BOM_PRES_METHOD NADI_LAT NADI_LON NADI_CAT NADI_WIND NADI_PRES WELLINGTON_LAT WELLINGTON_LON WELLINGTON_WIND WELLINGTON_PRES DS824_LAT DS824_LON DS824_STAGE DS824_WIND DS824_PRES TD9636_LAT TD9636_LON TD9636_STAGE TD9636_WIND TD9636_PRES TD9635_LAT TD9635_LON TD9635_WIND TD9635_PRES TD9635_ROCI NEUMANN_LAT NEUMANN_LON NEUMANN_CLASS NEUMANN_WIND NEUMANN_PRES MLC_LAT MLC_LON MLC_CLASS MLC_WIND MLC_PRES USA_GUST BOM_GUST BOM_GUST_PER REUNION_GUST REUNION_GUST_PER USA_SEAHGT USA_SEARAD_NE USA_SEARAD_SE USA_SEARAD_SW USA_SEARAD_NW STORM_SPEED STORM_DIR
1979083S15184 1979 24 SP MM MELI 1979-03-24 00:00:00 TS -15.0000 183.500 30 997 wellington main 408 407 O_______OOO_O_ jtwc_sh SH221979 -15.0000 -176.000 25 -1 -15.0000 -178.500 30 997 -15.0000 184.000 TC 25 -15.0000 -176.000 1 -15.0000 -176.000 TC 30 6 104
1979083S15184 1979 24 SP MM MELI 1979-03-24 03:00:00 TS -15.0749 183.809 main 407 379 P_______PPP_P_ SH221979 -15.1026 -175.750 27 -1 -14.9716 -177.950 30 997 -15.1026 -175.750 TC 27 -15.0954 -175.755 1 -15.1025 -175.753 TC 27 6 104
1979083S15184 1979 24 SP MM MELI 1979-03-24 06:00:00 TS -15.1493 184.115 main 379 356 O_______POP_O_ jtwc_sh SH221979 -15.2000 -175.500 30 -1 -14.9539 -177.420 30 997 -15.2000 184.500 TC 30 -15.1926 -175.508 1 -15.2000 -175.500 TC 25 6 104
1979083S15184 1979 24 SP MM MELI 1979-03-24 09:00:00 TS -15.2260 184.414 main 356 335 P_______PPP_P_ SH221979 -15.2925 -175.250 32 -1 -14.9592 -176.930 30 997 -15.2925 -175.250 TC 32 -15.2935 -175.257 1 -15.2925 -175.242 TC 25 6 107
1979083S15184 1979 24 SP MM MELI 1979-03-24 12:00:00 TS -15.3200 184.700 30 997 wellington main 335 314 O_______OOO_O_ jtwc_sh SH221979 -15.4000 -175.000 35 0 -15.0000 -176.500 30 997 -15.4000 185.000 TC 35 -15.4000 -175.000 1 25 -15.4000 -175.000 TC 25 6 112
1979083S15184 1979 24 SP MM MELI 1979-03-24 15:00:00 TS -15.4455 184.970 main 314 310 P_______PPP_P_ SH221979 -15.5425 -174.735 35 0 -15.0845 -176.146 32 995 -15.5425 -174.735 TC 35 -15.5154 -174.741 1 27 -15.5425 -174.792 TC 27 6 119
1979083S15184 1979 24 SP MM MELI 1979-03-24 18:00:00 TS -15.5904 185.206 main 310 302 O_______POP_O_ jtwc_sh SH221979 -15.7000 -174.500 35 0 -15.2045 -175.865 35 993 -15.7000 185.500 TC 35 -15.6476 -174.503 1 30 -15.7000 -174.600 TC 30 5 124
1979083S15184 1979 24 SP MM MELI 1979-03-24 21:00:00 TS -15.7301 185.408 main 302 302 P_______PPP_P_ SH221979 -15.8350 -174.312 37 0 -15.3472 -175.652 37 991 -15.8350 -174.312 TC 37 -15.8060 -174.313 1 32 -15.8275 -174.370 TC 32 4 134
1979083S15184 1979 24 SP MM MELI 1979-03-25 00:00:00 TS -15.9000 185.540 40 990 wellington main 311 304 O_______OOO_O_ jtwc_sh SH221979 -16.0000 -174.200 40 0 -15.5000 -175.500 40 990 -16.0000 185.800 TC 40 -16.0000 -174.200 2 35 -16.0000 -174.200 TC 35 4 155
1979083S15184 1979 24 SP MM MELI 1979-03-25 03:00:00 TS -16.1275 185.602 main 322 322 P_______PPP_P_ SH221979 -16.2275 -174.155 45 0 -15.6304 -175.364 40 990 -16.2275 -174.155 TC 45 -16.2673 -174.167 2 36 -16.2850 -174.148 TC 35 5 177
1979083S15184 1979 24 SP MM MELI 1979-03-25 06:00:00 TS -16.3869 185.580 main 349 349 O_______POP_O_ jtwc_sh SH221979 -16.5000 -174.200 50 0 -15.7698 -175.288 40 990 -16.5000 185.800 TC 50 -16.5647 -174.215 2 37 -16.6000 -174.200 TC 35 5 191
1979083S15184 1979 24 SP MM MELI 1979-03-25 09:00:00 TS -16.6563 185.490 main 383 383 P_______PPP_P_ SH221979 -16.8150 -174.320 55 0 -15.9242 -175.267 40 990 -16.8150 -174.320 TC 55 -16.8548 -174.330 2 38 -16.8725 -174.312 TC 37 6 204
1979083S15184 1979 24 SP MM MELI 1979-03-25 12:00:00 TS -16.9000 185.340 40 990 wellington main 413 413 O_______OOO_O_ jtwc_sh SH221979 -17.1000 -174.500 60 0 -16.1000 -175.300 40 990 -17.1000 185.500 TC 60 -17.1000 -174.500 2 40 -17.1000 -174.500 TC 40 5 215
1979083S15184 1979 24 SP MM MELI 1979-03-25 15:00:00 TS -17.0882 185.178 main 438 438 P_______PPP_P_ SH221979 -17.2874 -174.678 70 1 -16.3074 -175.346 43 987 -17.2874 -174.678 TC 70 -17.2786 -174.675 2 45 -17.2800 -174.735 TC 45 5 227
1979083S15184 1979 24 SP MM MELI 1979-03-25 18:00:00 TS -17.2279 184.971 main 459 459 O_______POP_O_ jtwc_sh SH221979 -17.4000 -174.900 80 1 -16.5348 -175.445 47 985 -17.4000 185.100 TC 80 -17.4047 -174.902 2 50 -17.4000 -175.000 TC 50 5 239
1979083S15184 1979 24 SP MM MELI 1979-03-25 21:00:00 TS -17.3421 184.729 main 487 487 P_______PPP_P_ SH221979 -17.4875 -175.177 87 2 -16.7698 -175.596 51 982 -17.4875 -175.177 TC 87 -17.4785 -175.178 2 55 -17.4874 -175.227 TC 55 5 251
1979083S15184 1979 24 SP MM MELI 1979-03-26 00:00:00 TS -17.4000 184.440 55 980 wellington main 483 451 O_______OOO_O_ jtwc_sh SH221979 -17.5000 -175.500 95 2 -17.0000 -175.800 55 980 -17.5000 184.500 TC 95 -17.5000 -175.500 2 60 -17.5000 -175.500 TC 60 6 266
1979083S15184 1979 24 SP MM MELI 1979-03-26 03:00:00 TS -17.3788 184.126 main 451 418 P_______PPP_P_ SH221979 -17.4149 -175.828 100 3 -17.2188 -175.997 57 977 -17.4149 -175.828 TC 100 -17.4304 -175.838 2 68 -17.4150 -175.878 TC 67 6 276
1979083S15184 1979 24 SP MM MELI 1979-03-26 06:00:00 TS -17.3297 183.766 main 418 376 O_______POP_O_ jtwc_sh SH221979 -17.3000 -176.200 105 3 -17.4290 -176.250 60 975 -17.3000 183.800 TC 105 -17.3197 -176.219 2 77 -17.3000 -176.300 TC 75 7 277
1979083S15184 1979 24 SP MM MELI 1979-03-26 09:00:00 TS -17.2927 183.369 main 376 323 P_______PPP_P_ SH221979 -17.2049 -176.628 107 3 -17.6247 -176.578 62 972 -17.2049 -176.628 TC 107 -17.2240 -176.641 2 86 -17.2048 -176.678 TC 85 8 271
1979083S15184 1979 24 SP MM MELI 1979-03-26 12:00:00 TS -17.3200 182.920 65 970 wellington main 323 276 O_______OOO_O_ jtwc_sh SH221979 -17.2000 -177.100 110 3 -17.8000 -177.000 65 970 -17.2000 182.900 TC 110 -17.2000 -177.100 4 95 -17.2000 -177.100 TC 95 9 259
1979083S15184 1979 24 SP MM MELI 1979-03-26 15:00:00 TS -17.4736 182.413 main 276 235 P_______PPP_P_ SH221979 -17.3624 -177.585 112 3 -17.9476 -177.552 68 966 -17.3624 -177.585 TC 112 -17.3330 -177.580 4 98 -17.3626 -177.635 TC 97 11 250
1979083S15184 1979 24 SP MM MELI 1979-03-26 18:00:00 TS -17.6827 181.863 main 235 192 O_______POP_O_ jtwc_sh SH221979 -17.6000 -178.100 115 4 -18.0739 -178.190 72 962 -17.6000 181.900 TC 115 -17.5398 -178.096 4 102 -17.6000 -178.200 TC 100 11 249
1979083S15184 1979 24 SP MM MELI 1979-03-26 21:00:00 TS -17.8849 181.305 main 192 164 P_______PPP_P_ SH221979 -17.8224 -178.642 115 4 -18.1881 -178.858 76 958 -17.8224 -178.642 TC 115 -17.7766 -178.640 4 106 -17.8147 -178.693 TC 105 11 251
1979083S15184 1979 24 SP MM MELI 1979-03-27 00:00:00 TS -18.0600 180.740 80 955 wellington main 168 148 O_______OOO_O_ jtwc_sh SH221979 -18.0000 -179.200 115 4 -18.3000 -179.500 80 955 -18.0000 180.800 TC 115 -18.0000 -179.200 4 110 -18.0000 -179.200 TC 110 11 256
1979083S15184 1979 24 SP MM MELI 1979-03-27 03:00:00 TS -18.1415 180.192 main 148 106 P_______PPP_P_ SH221979 -18.0498 -179.743 115 4 -18.3948 -179.997 77 957 -18.0498 -179.743 TC 115 -18.1056 -179.762 4 111 -18.1075 -179.793 TC 110 11 261
1979083S15184 1979 24 SP MM MELI 1979-03-27 06:00:00 TS -18.2184 179.640 main 95 47 O_______POP_O_ jtwc_sh SH221979 -18.1000 179.700 115 4 -18.4950 179.535 75 960 -18.1000 179.700 TC 115 -18.1971 179.663 4 112 -18.2000 179.600 TC 110 11 259
1979083S15184 1979 24 SP MM MELI 1979-03-27 09:00:00 TS -18.3535 179.076 main 53 35 P_______PPP_P_ SH221979 -18.2550 179.100 112 3 -18.6228 179.050 72 962 -18.2550 179.100 TC 112 -18.3150 179.081 4 113 -18.3197 179.050 TC 112 11 252
1979083S15184 1979 24 SP MM MELI 1979-03-27 12:00:00 TS -18.5600 178.500 70 965 wellington main 45 35 O_______OOO_O_ jtwc_sh SH221979 -18.5000 178.500 110 3 -18.8000 178.500 70 965 -18.5000 178.500 TC 110 -18.5000 178.500 4 115 -18.5000 178.500 TC 115 12 246
1979083S15184 1979 24 SP MM MELI 1979-03-27 15:00:00 TS -18.8459 177.886 main 55 55 P_______PPP_P_ SH221979 -18.8197 177.950 110 3 -19.0315 177.750 73 960 -18.8197 177.950 TC 110 -18.8034 177.882 4 113 -18.7550 177.900 TC 112 13 241
1979083S15184 1979 24 SP MM MELI 1979-03-27 18:00:00 TS -19.1977 177.262 main 116 116 O_______POP_O_ jtwc_sh SH221979 -19.2000 177.400 110 3 -19.3131 176.942 77 955 -19.2000 177.400 TC 110 -19.1756 177.269 4 112 -19.1000 177.300 TC 110 14 238
1979083S15184 1979 24 SP MM MELI 1979-03-27 21:00:00 TS -19.5931 176.626 main 183 183 P_______PPP_P_ SH221979 -19.6001 176.778 110 3 -19.6378 176.162 81 950 -19.6001 176.778 TC 110 -19.5849 176.697 4 111 -19.5425 176.713 TC 110 14 235
1979083S15184 1979 24 SP MM MELI 1979-03-28 00:00:00 TS -20.0000 176.060 85 945 wellington main 247 247 O_______OOO_O_ jtwc_sh SH221979 -20.0000 176.200 110 3 -20.0000 175.500 85 945 -20.0000 176.200 TC 110 -20.0000 176.200 4 110 -20.0000 176.200 TC 110 12 231
1979083S15184 1979 24 SP MM MELI 1979-03-28 03:00:00 TS -20.3605 175.614 main 313 313 P_______PPP_P_ SH221979 -20.3498 175.740 105 3 -20.3834 175.014 81 950 -20.3498 175.740 TC 105 -20.3621 175.772 4 110 -20.3573 175.805 TC 110 10 225
1979083S15184 1979 24 SP MM MELI 1979-03-28 06:00:00 TS -20.7260 175.277 main 358 358 O_______POP_O_ jtwc_sh SH221979 -20.7000 175.400 100 3 -20.8032 174.660 77 955 -20.7000 175.400 TC 100 -20.7267 175.427 4 110 -20.7000 175.500 TC 110 9 216
1979083S15184 1979 24 SP MM MELI 1979-03-28 09:00:00 TS -21.1238 175.024 main 413 413 P_______PPP_P_ SH221979 -21.0924 175.155 95 2 -21.2464 174.426 73 960 -21.0924 175.155 TC 95 -21.1030 175.169 4 110 -21.0850 175.212 TC 110 9 206
1979083S15184 1979 24 SP MM MELI 1979-03-28 12:00:00 TS -21.5400 174.860 70 965 wellington main 455 455 O_______OOO_O_ jtwc_sh SH221979 -21.5000 175.000 90 2 -21.7000 174.300 70 965 -21.5000 175.000 TC 90 -21.5000 175.000 4 110 -21.5000 175.000 TC 110 9 199
1979083S15184 1979 24 SP MM MELI 1979-03-28 15:00:00 TS -21.9475 174.717 main 504 504 P_______PPP_P_ SH221979 -21.8850 174.855 85 2 -22.1135 174.177 72 962 -21.8850 174.855 TC 85 -21.9115 174.849 4 105 -21.9424 174.848 TC 107 9 192
1979083S15184 1979 24 SP MM MELI 1979-03-28 18:00:00 TS -22.3770 174.671 main 552 552 O_______POP_O_ jtwc_sh SH221979 -22.3000 174.800 80 1 -22.5386 174.162 75 960 -22.3000 174.800 TC 80 -22.3465 174.791 4 100 -22.4000 174.800 TC 105 9 179
1979083S15184 1979 24 SP MM MELI 1979-03-28 21:00:00 TS -22.8400 174.726 main 591 591 P_______PPP_P_ SH221979 -22.7849 174.848 75 1 -22.9945 174.266 77 957 -22.7849 174.848 TC 75 -22.8083 174.838 4 95 -22.8274 174.833 TC 97 10 168
1979083S15184 1979 24 SP MM MELI 1979-03-29 00:00:00 TS -23.3400 174.900 80 955 wellington main 632 632 O_______OOO_O_ jtwc_sh SH221979 -23.3000 175.000 70 1 -23.5000 174.500 80 955 -23.3000 175.000 TC 70 -23.3000 175.000 4 90 -23.3000 175.000 TC 90 11 160
1979083S15184 1979 24 SP MM MELI 1979-03-29 03:00:00 TS -23.8644 175.130 main 687 684 P_______PPP_P_ SH221979 -23.7847 175.183 65 1 -24.0732 174.791 76 958 -23.7847 175.183 TC 65 -23.7870 175.195 4 85 -23.8925 175.297 TC 85 12 154
1979083S15184 1979 24 SP MM MELI 1979-03-29 06:00:00 TS -24.4203 175.486 main 725 725 O_______POP_O_ jtwc_sh SH221979 -24.3000 175.500 60 0 -24.6948 175.218 72 962 -24.3000 175.500 TC 60 -24.3069 175.514 4 80 -24.5000 175.700 TC 80 13 146
1979083S15184 1979 24 SP MM MELI 1979-03-29 09:00:00 TS -24.9821 175.946 main 777 774 P_______PPP_P_ SH221979 -24.8620 175.954 55 0 -25.3440 175.786 68 966 -24.8620 175.954 TC 55 -24.8734 175.975 4 75 -24.9691 176.062 TC 75 15 140
1979083S15184 1979 24 SP MM MELI 1979-03-29 12:00:00 TS -25.6000 176.580 65 970 wellington main 827 827 O_______OOO_O_ jtwc_sh SH221979 -25.5000 176.600 50 0 -26.0000 176.500 65 970 -25.5000 176.600 TC 50 -25.5000 176.600 4 70 -25.5000 176.600 TC 70 19 135
1979083S15184 1979 24 SP MM MELI 1979-03-29 15:00:00 TS -26.3130 177.407 main 895 895 P_______PPP_P_ SH221979 -26.2274 177.425 50 0 -26.6259 177.337 62 972 -26.2274 177.425 TC 50 -26.2140 177.383 4 65 -26.2705 177.467 TC 65 22 132
1979083S15184 1979 24 SP MM MELI 1979-03-29 18:00:00 TS -27.0660 178.389 main 972 960 O_______POP_O_ jtwc_sh SH221979 -27.0000 178.400 50 0 -27.2510 178.314 60 975 -27.0000 178.400 TC 50 -26.9788 178.330 4 60 -27.1000 178.500 TC 60 23 130
1979083S15184 1979 24 SP MM MELI 1979-03-29 21:00:00 TS -27.7990 179.421 main 961 951 P_______PPP_P_ SH221979 -27.7722 179.428 50 0 -27.8752 179.385 57 977 -27.7722 179.428 TC 50 -27.7539 179.388 4 55 -27.8216 179.479 TC 55 24 128
1979083S15184 1979 24 SP MM MELI 1979-03-30 00:00:00 TS -28.5000 180.500 55 980 wellington main 956 953 O_______OOO_O_ jtwc_sh SH221979 -28.5000 -179.500 50 0 -28.5000 -179.500 55 980 -28.5000 180.500 TC 50 -28.5000 -179.500 2 50 -28.5000 -179.500 TC 50 23 125
1979083S15184 1979 24 SP MM MELI 1979-03-30 03:00:00 TS -29.1082 181.528 main 966 961 P_______PPP_P_ SH221979 -29.1136 -178.470 50 0 -29.0566 -178.497 55 980 -29.1136 -178.470 TC 50 -29.0927 -178.502 2 50 -29.1643 -178.421 TC 50 22 123
1979083S15184 1979 24 SP MM MELI 1979-03-30 06:00:00 TS -29.6977 182.599 main 965 948 O_______POP_O_ jtwc_sh SH221979 -29.7000 -177.400 50 0 -29.6255 -177.449 55 980 -29.7000 182.600 TC 50 -29.6632 -177.455 2 50 -29.8000 -177.300 TC 50 22 122
1979083S15184 1979 24 SP MM MELI 1979-03-30 09:00:00 TS -30.2968 183.718 main 948 943 P_______PPP_P_ SH221979 -30.3028 -176.278 50 0 -30.2570 -176.304 55 980 -30.3028 -176.278 TC 50 -30.2774 -176.307 2 50 -30.3440 -176.241 TC 50 24 122
1979083S15184 1979 24 SP MM MELI 1979-03-30 12:00:00 TS -31.0000 185.000 55 980 wellington main 948 948 O_______OOO_O_ jtwc_sh SH221979 -31.0000 -175.000 50 0 -31.0000 -175.000 55 980 -31.0000 185.000 TC 50 -31.0000 -175.000 2 50 -31.0000 -175.000 TC 50 29 123
1979083S15184 1979 24 SP MM MELI 1979-03-30 15:00:00 TS -31.8617 186.546 main 966 966 P_______PPP_P_ SH221979 -31.8310 -173.501 47 0 -31.8528 -173.462 51 982 -31.8310 -173.501 TC 47 -31.8528 -173.462 2 48 -31.9411 -173.341 TC 47 33 124
1979083S15184 1979 24 SP MM MELI 1979-03-30 18:00:00 TS -32.8453 188.281 main 1033 1033 O_______POP_O_ jtwc_sh SH221979 -32.8000 -171.800 45 0 -32.8133 -171.747 47 985 -32.8000 188.200 TC 45 -32.8133 -171.747 2 47 -33.0000 -171.500 TC 45 36 124
1979083S15184 1979 24 SP MM MELI 1979-03-30 21:00:00 TS -33.8797 190.101 main 1116 1116 P_______PPP_P_ SH221979 -33.8539 -169.949 45 0 -33.8661 -169.907 43 987 -33.8539 -169.949 TC 45 -33.8661 -169.907 2 46 -33.9585 -169.779 TC 45 38 125
1979083S15184 1979 24 SP MM MELI 1979-03-31 00:00:00 TS -35.0000 192.000 40 990 wellington main 1233 1233 O_______OOO_O_ jtwc_sh SH221979 -35.0000 -168.000 45 0 -35.0000 -168.000 40 990 -35.0000 192.000 TC 45 -35.0000 -168.000 2 45 -35.0000 -168.000 TC 45 39 126
1979083S15184 1979 24 SP MM MELI 1979-03-31 03:00:00 TS -36.1908 193.940 main 1364 1364 P_______PPP_P_ SH221979 -36.1667 -166.066 -1 -36.2048 -166.067 40 990 -36.1667 -166.066 TC -36.2048 -166.067 2 -36.2112 -166.035 TC 42 40 128
1979083S15184 1979 24 SP MM MELI 1979-03-31 06:00:00 TS -37.4435 195.920 main 1519 1519 O_______POP_O_ jtwc_sh SH221979 -37.4000 -164.100 -1 -37.4587 -164.100 40 990 -37.4000 195.900 TC -37.4587 -164.100 2 -37.5000 -164.000 TC 40 41 129
1979083S15184 1979 24 SP MM MELI 1979-03-31 09:00:00 TS -38.7241 197.934 main 1682 1682 P_______PPP_P_ SH221979 -38.6923 -162.084 -1 -38.7340 -162.082 40 990 -38.6923 -162.084 TC -38.7340 -162.082 2 -38.7678 -162.000 TC 37 41 129
1979083S15184 1979 24 SP MM MELI 1979-03-31 12:00:00 TS -40.0000 200.000 40 990 wellington main 1860 O_______OOO_O_ jtwc_sh SH221979 -40.0000 -160.000 -1 -40.0000 -160.000 40 990 -40.0000 200.000 TC -40.0000 -160.000 2 -40.0000 -160.000 TC 35 41 129

デジタル台風データ・検索

IBTrACS Databaseについて

本データベースは、米国NOAAが公開する1842年以降の世界の熱帯低気圧のベストトラックデータアーカイブInternational Best Track Archive for Climate Stewardship (IBTrACS)を、ウェブで閲覧しやすい形式に変換したものです。

最終更新日:2021-11-26